createdAt,value
2019-04-07T00:01:41.263Z,25.09
2019-04-07T00:04:10.923Z,25.04
2019-04-07T00:06:40.773Z,25.01
2019-04-07T00:09:10.822Z,25.01
2019-04-07T00:11:40.382Z,25.03
2019-04-07T00:14:10.405Z,25.00
2019-04-07T00:16:40.577Z,25.01
2019-04-07T00:19:10.122Z,24.97
2019-04-07T00:21:40.861Z,25.03
2019-04-07T00:24:10.369Z,25.16
2019-04-07T00:26:40.549Z,25.16
2019-04-07T00:29:10.106Z,25.10
2019-04-07T00:31:39.861Z,25.06
2019-04-07T00:34:09.625Z,25.05
2019-04-07T00:36:39.667Z,25.03
2019-04-07T00:39:10.546Z,25.07
2019-04-07T00:41:40.288Z,25.02
2019-04-07T00:44:09.845Z,25.04
2019-04-07T00:46:39.784Z,24.99
2019-04-07T00:49:09.505Z,25.00
2019-04-07T00:51:39.128Z,24.96
2019-04-07T00:54:08.596Z,24.96
2019-04-07T00:56:38.091Z,24.93
2019-04-07T00:59:07.737Z,24.93
2019-04-07T01:01:37.236Z,24.90
2019-04-07T01:04:06.658Z,24.90
2019-04-07T01:06:36.231Z,24.83
2019-04-07T01:09:09.129Z,24.81
2019-04-07T01:11:38.626Z,24.75
2019-04-07T01:14:08.312Z,24.67
2019-04-07T01:16:37.910Z,24.58
2019-04-07T01:19:07.367Z,24.51
2019-04-07T01:21:36.945Z,24.42
2019-04-07T01:24:06.542Z,24.34
2019-04-07T01:26:37.180Z,24.28
2019-04-07T01:29:08.086Z,24.23
2019-04-07T01:31:38.017Z,24.20
2019-04-07T01:34:09.572Z,24.13
2019-04-07T01:36:39.132Z,24.15
2019-04-07T01:39:11.123Z,24.12
2019-04-07T01:41:48.535Z,24.14
2019-04-07T01:44:39.771Z,24.08
2019-04-07T01:47:28.858Z,24.06
2019-04-07T01:50:17.426Z,24.06
2019-04-07T01:53:04.674Z,24.12
2019-04-07T01:55:56.433Z,24.13
2019-04-07T01:58:38.177Z,24.17
2019-04-07T02:01:23.617Z,24.26
2019-04-07T02:04:00.333Z,24.28
2019-04-07T02:06:51.759Z,24.36
2019-04-07T02:09:43.310Z,24.40
2019-04-07T02:12:37.749Z,24.36
2019-04-07T02:15:24.075Z,24.38
2019-04-07T02:18:08.094Z,24.37
2019-04-07T02:21:05.397Z,24.41
2019-04-07T02:23:48.211Z,24.37
2019-04-07T02:26:31.777Z,24.43
2019-04-07T02:29:15.439Z,24.39
2019-04-07T02:32:08.042Z,24.43
2019-04-07T02:35:03.618Z,24.42
2019-04-07T02:37:55.554Z,24.47
2019-04-07T02:40:51.505Z,24.54
2019-04-07T02:43:40.277Z,24.50
2019-04-07T02:46:28.798Z,24.53
2019-04-07T02:49:21.429Z,24.48
2019-04-07T02:52:07.634Z,24.53
2019-04-07T02:54:59.244Z,24.59
2019-04-07T02:57:33.891Z,24.61
2019-04-07T03:00:22.546Z,24.58
2019-04-07T03:03:03.409Z,24.56
2019-04-07T03:05:43.584Z,24.56
2019-04-07T03:08:27.799Z,24.53
2019-04-07T03:11:29.190Z,24.50
2019-04-07T03:14:21.571Z,24.57
2019-04-07T03:17:08.292Z,24.60
2019-04-07T03:20:00.650Z,24.58
2019-04-07T03:22:47.779Z,24.53
2019-04-07T03:25:24.932Z,24.54
2019-04-07T03:28:19.777Z,24.50
2019-04-07T03:31:12.728Z,24.54
2019-04-07T03:34:20.787Z,24.50
2019-04-07T03:37:31.300Z,24.50
2019-04-07T03:40:06.656Z,24.49
2019-04-07T03:42:53.241Z,24.42
2019-04-07T03:45:41.649Z,24.48
2019-04-07T03:48:38.854Z,24.47
2019-04-07T03:51:26.543Z,24.39
2019-04-07T03:54:26.851Z,24.34
2019-04-07T03:57:15.113Z,24.24
2019-04-07T04:00:12.919Z,24.17
2019-04-07T04:03:00.649Z,24.13
2019-04-07T04:05:52.198Z,24.07
2019-04-07T04:08:32.747Z,24.05
2019-04-07T04:11:09.604Z,24.02
2019-04-07T04:13:58.364Z,23.97
2019-04-07T04:16:34.006Z,23.92
2019-04-07T04:19:04.237Z,23.92
2019-04-07T04:21:34.660Z,23.89
2019-04-07T04:24:04.335Z,23.87
2019-04-07T04:26:34.364Z,23.85
2019-04-07T04:29:04.075Z,23.85
2019-04-07T04:31:33.911Z,23.86
2019-04-07T04:34:03.441Z,23.93
2019-04-07T04:36:33.486Z,23.92
2019-04-07T04:39:04.920Z,23.99
2019-04-07T04:41:34.841Z,24.03
2019-04-07T04:44:04.697Z,24.07
2019-04-07T04:46:34.531Z,24.08
2019-04-07T04:49:04.271Z,24.10
2019-04-07T04:51:36.971Z,24.04
2019-04-07T04:54:05.233Z,24.10
2019-04-07T04:56:34.773Z,24.06
2019-04-07T04:59:04.339Z,24.06
2019-04-07T05:01:34.459Z,24.10
2019-04-07T05:04:04.115Z,24.08
2019-04-07T05:06:33.555Z,24.04
2019-04-07T05:09:04.718Z,24.01
2019-04-07T05:11:35.909Z,24.03
2019-04-07T05:14:05.922Z,24.01
2019-04-07T05:16:35.675Z,23.97
2019-04-07T05:19:05.235Z,24.13
2019-04-07T05:21:34.994Z,24.80
2019-04-07T05:24:04.630Z,24.96
2019-04-07T05:26:34.522Z,24.88
2019-04-07T05:29:04.712Z,24.79
2019-04-07T05:31:34.769Z,24.76
2019-04-07T05:34:05.353Z,24.70
2019-04-07T05:36:34.873Z,24.68
2019-04-07T05:39:06.553Z,24.68
2019-04-07T05:41:36.330Z,24.71
2019-04-07T05:44:06.337Z,24.59
2019-04-07T05:46:40.098Z,24.58
2019-04-07T05:49:07.625Z,24.61
2019-04-07T05:51:37.130Z,24.56
2019-04-07T05:54:07.130Z,24.52
2019-04-07T05:56:37.204Z,24.54
2019-04-07T05:59:09.900Z,24.49
2019-04-07T06:01:37.908Z,24.47
2019-04-07T06:04:07.609Z,24.53
2019-04-07T06:06:39.980Z,24.56
2019-04-07T06:09:09.459Z,24.49
2019-04-07T06:11:39.048Z,24.45
2019-04-07T06:14:08.536Z,24.50
2019-04-07T06:16:37.990Z,24.65
2019-04-07T06:19:08.275Z,24.80
2019-04-07T06:21:38.667Z,24.70
2019-04-07T06:24:08.219Z,24.66
2019-04-07T06:26:41.527Z,24.63
2019-04-07T06:29:10.580Z,24.63
2019-04-07T06:31:40.295Z,24.61
2019-04-07T06:34:11.274Z,24.51
2019-04-07T06:36:41.250Z,24.48
2019-04-07T06:39:11.093Z,24.40
2019-04-07T06:41:40.665Z,24.32
2019-04-07T06:44:13.816Z,24.39
2019-04-07T06:46:59.102Z,24.43
2019-04-07T06:49:34.509Z,24.35
2019-04-07T06:52:23.819Z,24.36
2019-04-07T06:55:17.956Z,24.38
2019-04-07T06:58:12.079Z,24.43
2019-04-07T07:01:03.174Z,25.12
2019-04-07T07:04:09.294Z,25.14
2019-04-07T07:06:54.376Z,25.04
2019-04-07T07:09:45.893Z,25.01
2019-04-07T07:12:37.289Z,24.99
2019-04-07T07:15:10.047Z,24.95
2019-04-07T07:17:50.692Z,24.92
2019-04-07T07:20:28.671Z,24.90
2019-04-07T07:23:03.877Z,24.91
2019-04-07T07:25:34.819Z,24.89
2019-04-07T07:28:04.535Z,24.90
2019-04-07T07:30:34.889Z,24.92
2019-04-07T07:33:10.859Z,24.93
2019-04-07T07:35:38.889Z,25.68
2019-04-07T07:38:09.205Z,26.27
2019-04-07T07:40:39.607Z,26.01
2019-04-07T07:43:09.789Z,25.84
2019-04-07T07:45:42.980Z,25.72
2019-04-07T07:48:10.942Z,25.66
2019-04-07T07:50:41.065Z,25.61
2019-04-07T07:53:11.438Z,25.56
2019-04-07T07:55:41.179Z,25.74
2019-04-07T07:58:11.595Z,26.28
2019-04-07T08:00:43.399Z,26.42
2019-04-07T08:03:14.650Z,26.40
2019-04-07T08:05:44.286Z,26.28
2019-04-07T08:08:14.942Z,26.21
2019-04-07T08:10:45.180Z,26.08
2019-04-07T08:13:14.838Z,25.98
2019-04-07T08:15:45.804Z,25.89
2019-04-07T08:18:15.969Z,25.79
2019-04-07T08:20:46.779Z,25.76
2019-04-07T08:23:16.263Z,25.64
2019-04-07T08:25:47.142Z,25.56
2019-04-07T08:28:19.398Z,25.47
2019-04-07T08:30:48.047Z,25.40
2019-04-07T08:33:17.918Z,25.32
2019-04-07T08:35:48.022Z,25.29
2019-04-07T08:38:19.971Z,25.26
2019-04-07T08:40:49.770Z,25.19
2019-04-07T08:43:21.194Z,25.16
2019-04-07T08:45:51.437Z,25.07
2019-04-07T08:48:21.587Z,25.01
2019-04-07T08:50:51.849Z,25.02
2019-04-07T08:53:22.876Z,25.30
2019-04-07T08:55:54.770Z,25.54
2019-04-07T08:58:27.877Z,25.78
2019-04-07T09:00:56.192Z,25.92
2019-04-07T09:03:25.774Z,25.99
2019-04-07T09:05:57.400Z,25.99
2019-04-07T09:08:26.525Z,26.02
2019-04-07T09:11:04.632Z,26.04
2019-04-07T09:13:34.427Z,26.03
2019-04-07T09:16:22.486Z,26.00
2019-04-07T09:19:14.776Z,25.97
2019-04-07T09:22:02.885Z,25.92
2019-04-07T09:25:08.225Z,25.92
2019-04-07T09:27:46.087Z,25.86
2019-04-07T09:30:37.899Z,26.46
2019-04-07T09:33:36.938Z,26.90
2019-04-07T09:36:28.539Z,27.13
2019-04-07T09:39:23.628Z,27.30
2019-04-07T09:42:10.978Z,27.74
2019-04-07T09:45:03.296Z,27.82
2019-04-07T09:48:00.597Z,27.91
2019-04-07T09:50:54.966Z,28.27
2019-04-07T09:53:48.795Z,28.66
2019-04-07T09:56:33.995Z,29.14
2019-04-07T09:59:31.864Z,29.43
2019-04-07T10:02:10.351Z,29.78
2019-04-07T10:05:11.171Z,29.94
2019-04-07T10:08:01.172Z,30.55
2019-04-07T10:10:54.829Z,31.04
2019-04-07T10:13:49.678Z,31.36
2019-04-07T10:16:41.949Z,31.72
2019-04-07T10:19:42.872Z,31.98
2019-04-07T10:22:29.841Z,32.15
2019-04-07T10:25:09.480Z,32.24
2019-04-07T10:28:12.482Z,32.38
2019-04-07T10:30:50.170Z,32.46
2019-04-07T10:33:37.822Z,32.20
2019-04-07T10:36:42.432Z,32.29
2019-04-07T10:39:33.786Z,32.32
2019-04-07T10:42:25.899Z,32.26
2019-04-07T10:45:12.007Z,32.25
2019-04-07T10:48:12.364Z,32.14
2019-04-07T10:51:04.457Z,32.17
2019-04-07T10:53:58.868Z,32.10
2019-04-07T10:56:48.026Z,32.04
2019-04-07T10:59:35.264Z,31.99
2019-04-07T11:02:14.515Z,31.90
2019-04-07T11:04:57.337Z,31.82
2019-04-07T11:07:39.335Z,31.71
2019-04-07T11:10:32.944Z,31.60
2019-04-07T11:13:12.487Z,31.50
2019-04-07T11:16:06.398Z,31.41
2019-04-07T11:18:58.542Z,31.31
2019-04-07T11:21:42.040Z,31.19
2019-04-07T11:24:39.841Z,31.10
2019-04-07T11:27:44.038Z,30.99
2019-04-07T11:30:35.576Z,30.89
2019-04-07T11:33:18.272Z,30.75
2019-04-07T11:36:06.031Z,30.73
2019-04-07T11:38:53.438Z,30.60
2019-04-07T11:42:00.905Z,30.51
2019-04-07T11:44:49.825Z,30.44
2019-04-07T11:47:36.247Z,30.37
2019-04-07T11:50:28.076Z,30.28
2019-04-07T11:53:11.539Z,30.13
2019-04-07T11:56:08.722Z,29.89
2019-04-07T11:59:02.599Z,29.64
2019-04-07T12:01:54.221Z,29.36
2019-04-07T12:04:34.564Z,29.11
2019-04-07T12:07:22.100Z,28.82
2019-04-07T12:10:05.173Z,28.47
2019-04-07T12:12:49.407Z,28.19
2019-04-07T12:15:30.326Z,27.96
2019-04-07T12:18:18.859Z,27.73
2019-04-07T12:21:07.615Z,27.54
2019-04-07T12:24:03.275Z,27.32
2019-04-07T12:26:51.892Z,27.24
2019-04-07T12:29:49.410Z,27.04
2019-04-07T12:32:37.949Z,26.75
2019-04-07T12:35:42.952Z,26.58
2019-04-07T12:38:45.087Z,26.35
2019-04-07T12:41:36.880Z,26.11
2019-04-07T12:44:15.850Z,25.92
2019-04-07T12:47:03.233Z,25.77
2019-04-07T12:49:44.958Z,25.65
2019-04-07T12:52:42.689Z,25.51
2019-04-07T12:55:35.045Z,25.40
2019-04-07T12:58:13.435Z,25.30
2019-04-07T13:01:09.570Z,25.18
2019-04-07T13:03:48.704Z,25.05
2019-04-07T13:06:37.598Z,24.96
2019-04-07T13:09:29.709Z,24.86
2019-04-07T13:12:28.967Z,24.78
2019-04-07T13:15:23.505Z,24.64
2019-04-07T13:18:20.747Z,24.51
2019-04-07T13:21:11.931Z,24.42
2019-04-07T13:23:52.572Z,24.33
2019-04-07T13:26:32.036Z,24.19
2019-04-07T13:29:18.773Z,24.07
2019-04-07T13:32:13.266Z,23.96
2019-04-07T13:34:54.936Z,23.83
2019-04-07T13:37:50.063Z,23.66
2019-04-07T13:40:26.916Z,23.55
2019-04-07T13:43:18.675Z,23.71
2019-04-07T13:46:22.247Z,23.77
2019-04-07T13:49:00.106Z,23.77
2019-04-07T13:54:49.739Z,23.97
2019-04-07T13:57:32.556Z,23.98
2019-04-07T14:00:23.619Z,23.96
2019-04-07T14:03:02.060Z,23.99
2019-04-07T14:05:53.533Z,23.99
2019-04-07T14:08:37.553Z,24.28
2019-04-07T14:11:20.945Z,24.52
2019-04-07T14:14:09.641Z,24.77
2019-04-07T14:16:49.729Z,24.93
2019-04-07T14:19:40.458Z,25.03
2019-04-07T14:22:28.843Z,25.11
2019-04-07T14:25:15.608Z,25.14
2019-04-07T14:28:04.693Z,25.13
2019-04-07T14:30:53.360Z,25.08
2019-04-07T14:33:42.571Z,25.02
2019-04-07T14:36:23.292Z,24.94
2019-04-07T14:39:18.711Z,24.87
2019-04-07T14:42:04.518Z,24.79
2019-04-07T14:44:56.921Z,24.68
2019-04-07T14:47:36.109Z,24.61
2019-04-07T14:50:26.470Z,24.50
2019-04-07T14:53:07.808Z,24.43
2019-04-07T14:55:45.298Z,24.48
2019-04-07T14:58:39.581Z,24.44
2019-04-07T15:01:31.010Z,24.29
2019-04-07T15:04:01.130Z,24.23
2019-04-07T15:06:33.314Z,24.18
2019-04-07T15:09:14.688Z,24.08
2019-04-07T15:12:14.754Z,24.01
2019-04-07T15:14:36.003Z,23.94
2019-04-07T15:17:05.985Z,23.94
2019-04-07T15:19:36.224Z,23.86
2019-04-07T15:22:06.768Z,23.75
2019-04-07T15:24:37.650Z,23.67
2019-04-07T15:27:08.363Z,23.63
2019-04-07T15:29:41.366Z,23.63
2019-04-07T15:32:09.486Z,23.61
2019-04-07T15:34:42.087Z,23.61
2019-04-07T15:37:10.627Z,23.57
2019-04-07T15:39:40.266Z,23.61
2019-04-07T15:42:11.421Z,23.57
2019-04-07T15:44:42.754Z,23.58
2019-04-07T15:47:13.187Z,23.51
2019-04-07T15:49:42.708Z,23.52
2019-04-07T15:52:13.097Z,23.48
2019-04-07T15:54:43.443Z,23.51
2019-04-07T15:57:13.216Z,23.44
2019-04-07T15:59:43.295Z,23.43
2019-04-07T16:02:13.366Z,23.57
2019-04-07T16:04:44.298Z,23.55
2019-04-07T16:07:14.614Z,23.48
2019-04-07T16:09:51.074Z,23.43
2019-04-07T16:12:16.520Z,23.29
2019-04-07T16:14:47.019Z,23.26
2019-04-07T16:17:16.956Z,23.12
2019-04-07T16:19:50.908Z,23.03
2019-04-07T16:22:18.209Z,23.06
2019-04-07T16:24:51.612Z,23.11
2019-04-07T16:27:19.311Z,23.16
2019-04-07T16:29:48.895Z,23.17
2019-04-07T16:32:19.806Z,23.16
2019-04-07T16:34:49.776Z,23.21
2019-04-07T16:37:19.389Z,23.29
2019-04-07T16:39:50.134Z,23.74
2019-04-07T16:42:19.785Z,24.15
2019-04-07T16:44:49.397Z,24.51
2019-04-07T16:47:23.275Z,25.11
2019-04-07T16:49:50.393Z,25.36
2019-04-07T16:52:20.434Z,25.79
2019-04-07T16:54:50.527Z,25.95
2019-04-07T16:57:20.509Z,26.08
2019-04-07T16:59:50.126Z,26.36
2019-04-07T17:02:20.352Z,26.71
2019-04-07T17:04:50.611Z,26.72
2019-04-07T17:07:21.885Z,26.82
2019-04-07T17:09:54.937Z,26.87
2019-04-07T17:12:23.704Z,26.89
2019-04-07T17:14:54.216Z,27.40
2019-04-07T17:17:24.033Z,28.47
2019-04-07T17:19:58.205Z,29.25
2019-04-07T17:22:25.716Z,29.65
2019-04-07T17:25:00.035Z,30.01
2019-04-07T17:27:28.227Z,31.11
2019-04-07T17:29:58.438Z,31.35
2019-04-07T17:32:30.511Z,31.61
2019-04-07T17:34:59.742Z,31.80
2019-04-07T17:37:29.724Z,32.08
2019-04-07T17:40:11.324Z,32.28
2019-04-07T17:42:39.854Z,32.58
2019-04-07T17:45:28.673Z,32.60
2019-04-07T17:48:20.337Z,32.68
2019-04-07T17:51:10.117Z,32.67
2019-04-07T17:53:47.307Z,32.78
2019-04-07T17:56:22.678Z,33.09
2019-04-07T17:59:04.552Z,33.27
2019-04-07T18:02:11.309Z,33.45
2019-04-07T18:05:02.857Z,33.55
2019-04-07T18:07:47.720Z,33.60
2019-04-07T18:10:33.821Z,33.64
2019-04-07T18:13:39.807Z,33.60
2019-04-07T18:16:17.378Z,33.67
2019-04-07T18:19:05.926Z,33.67
2019-04-07T18:21:55.040Z,33.65
2019-04-07T18:24:51.085Z,33.66
2019-04-07T18:27:34.084Z,33.55
2019-04-07T18:30:21.806Z,33.49
2019-04-07T18:32:56.534Z,33.46
2019-04-07T18:35:43.918Z,33.40
2019-04-07T18:38:33.112Z,33.43
2019-04-07T18:41:24.631Z,33.20
2019-04-07T18:44:06.377Z,33.53
2019-04-07T18:46:47.747Z,34.34
2019-04-07T18:49:45.055Z,34.51
2019-04-07T18:52:35.794Z,34.49
2019-04-07T18:55:22.440Z,34.83
2019-04-07T18:58:03.012Z,34.97
2019-04-07T19:01:08.168Z,35.18
2019-04-07T19:04:12.160Z,35.35
2019-04-07T19:07:04.230Z,35.46
2019-04-07T19:09:44.485Z,35.47
2019-04-07T19:12:29.846Z,35.62
2019-04-07T19:15:13.441Z,35.90
2019-04-07T19:17:58.950Z,36.04
2019-04-07T19:20:46.708Z,36.37
2019-04-07T19:23:26.237Z,36.67
2019-04-07T19:26:25.472Z,35.88
2019-04-07T19:29:12.769Z,35.92
2019-04-07T19:32:11.481Z,36.45
2019-04-07T19:34:57.241Z,36.65
2019-04-07T19:37:40.588Z,36.91
2019-04-07T19:40:23.532Z,37.11
2019-04-07T19:43:53.215Z,37.17
2019-04-07T19:46:38.580Z,37.34
2019-04-07T19:49:27.450Z,37.26
2019-04-07T19:52:19.036Z,37.29
2019-04-07T19:55:14.314Z,37.28
2019-04-07T19:58:02.748Z,37.18
2019-04-07T20:00:56.865Z,37.09
2019-04-07T20:03:44.745Z,37.03
2019-04-07T20:06:44.505Z,36.88
2019-04-07T20:09:32.294Z,36.71
2019-04-07T20:12:10.628Z,36.58
2019-04-07T20:15:08.777Z,36.48
2019-04-07T20:17:43.058Z,36.35
2019-04-07T20:20:29.000Z,36.17
2019-04-07T20:23:20.324Z,36.01
2019-04-07T20:26:10.007Z,35.71
2019-04-07T20:29:06.679Z,35.66
2019-04-07T20:31:53.488Z,35.54
2019-04-07T20:34:40.123Z,35.36
2019-04-07T20:37:26.668Z,35.23
2019-04-07T20:40:38.855Z,35.22
2019-04-07T20:43:17.647Z,35.54
2019-04-07T20:46:20.784Z,36.24
2019-04-07T20:48:59.233Z,36.59
2019-04-07T20:52:03.562Z,36.53
2019-04-07T20:54:50.885Z,36.91
2019-04-07T20:57:54.245Z,37.20
2019-04-07T21:00:38.198Z,37.50
2019-04-07T21:03:28.609Z,37.67
2019-04-07T21:06:16.804Z,37.98
2019-04-07T21:08:52.866Z,38.14
2019-04-07T21:11:45.800Z,38.37
2019-04-07T21:14:29.182Z,38.47
2019-04-07T21:17:18.834Z,38.63
2019-04-07T21:20:11.796Z,38.75
2019-04-07T21:23:07.133Z,38.71
2019-04-07T21:26:13.856Z,38.81
2019-04-07T21:28:56.706Z,38.88
2019-04-07T21:31:32.287Z,39.00
2019-04-07T21:34:19.200Z,39.09
2019-04-07T21:37:00.511Z,39.22
2019-04-07T21:39:48.935Z,39.18
2019-04-07T21:42:36.058Z,39.24
2019-04-07T21:45:35.344Z,39.14
2019-04-07T21:48:13.994Z,39.20
2019-04-07T21:50:52.677Z,39.21
2019-04-07T21:53:48.592Z,39.38
2019-04-07T21:56:39.061Z,39.52
2019-04-07T21:59:34.095Z,39.60
2019-04-07T22:02:17.962Z,39.42
2019-04-07T22:05:07.319Z,39.27
2019-04-07T22:07:42.727Z,39.28
2019-04-07T22:10:13.668Z,39.31
2019-04-07T22:12:44.250Z,39.27
2019-04-07T22:15:15.133Z,39.28
2019-04-07T22:17:45.812Z,39.19
2019-04-07T22:20:18.803Z,39.18
2019-04-07T22:22:47.179Z,39.17
2019-04-07T22:25:23.299Z,39.06
2019-04-07T22:27:55.537Z,39.02
2019-04-07T22:30:24.242Z,38.97
2019-04-07T22:32:54.127Z,38.89
2019-04-07T22:35:24.588Z,38.84
2019-04-07T22:37:54.737Z,38.73
2019-04-07T22:40:25.552Z,38.70
2019-04-07T22:42:55.197Z,38.62
2019-04-07T22:45:28.557Z,38.55
2019-04-07T22:47:57.108Z,38.46
2019-04-07T22:50:27.252Z,38.42
2019-04-07T22:52:57.475Z,38.34
2019-04-07T22:55:27.202Z,38.29
2019-04-07T22:57:57.820Z,38.19
2019-04-07T23:00:27.536Z,38.09
2019-04-07T23:02:57.167Z,38.01
2019-04-07T23:05:27.635Z,37.95
2019-04-07T23:07:57.237Z,37.83
2019-04-07T23:10:27.398Z,37.76
2019-04-07T23:12:57.324Z,37.62
2019-04-07T23:15:38.664Z,37.55
2019-04-07T23:17:58.309Z,37.47
2019-04-07T23:20:29.007Z,37.33
2019-04-07T23:22:58.705Z,37.18
2019-04-07T23:25:28.290Z,37.01
2019-04-07T23:27:58.462Z,36.86
2019-04-07T23:30:29.356Z,36.75
2019-04-07T23:32:58.953Z,36.59
2019-04-07T23:35:28.766Z,36.46
2019-04-07T23:37:59.407Z,36.29
2019-04-07T23:40:29.927Z,36.13
2019-04-07T23:43:00.579Z,36.00
2019-04-07T23:45:30.210Z,35.87
2019-04-07T23:47:59.955Z,35.77
2019-04-07T23:50:29.515Z,35.70
2019-04-07T23:53:03.538Z,35.64
2019-04-07T23:55:33.129Z,35.60
2019-04-07T23:58:02.833Z,35.53
